Time;durP1;ratioP1;P1;durP2;ratioP2;P2;SDS_P1;SDS_P2;PMS_P1;PMS_P2;Temp;Humidity;BMP_temperature;BMP_pressure;BME280_temperature;BME280_humidity;BME280_pressure;Samples;Min_cycle;Max_cycle;Signal;HPM_P1;HPM_P2
2024/01/30 00:01:42;;;;;;;29.25;19.30;;;5.80;99.90;;;;;;5060207;28;20406;-83
2024/01/30 00:04:08;;;;;;;29.45;19.33;;;5.90;99.90;;;;;;5075606;28;20054;-83
2024/01/30 00:06:33;;;;;;;26.50;19.05;;;5.80;99.90;;;;;;5069016;28;20064;-83
2024/01/30 00:08:59;;;;;;;30.65;19.30;;;5.80;99.90;;;;;;5068898;28;20052;-82
2024/01/30 00:11:28;;;;;;;30.05;19.90;;;5.90;99.90;;;;;;5054629;28;20518;-83
2024/01/30 00:13:56;;;;;;;33.50;20.42;;;5.90;99.90;;;;;;5065708;28;20057;-83
2024/01/30 00:16:24;;;;;;;29.95;20.17;;;5.90;99.90;;;;;;5071981;28;20045;-83
2024/01/30 00:18:53;;;;;;;31.83;19.73;;;5.90;99.90;;;;;;5074872;28;20115;-83
2024/01/30 00:21:20;;;;;;;31.63;20.33;;;6.00;99.90;;;;;;5071838;28;20084;-83
2024/01/30 00:23:46;;;;;;;30.33;20.20;;;5.90;99.90;;;;;;5072926;28;20178;-83
2024/01/30 00:26:12;;;;;;;32.75;20.13;;;5.90;99.90;;;;;;5078454;28;20037;-83
2024/01/30 00:28:41;;;;;;;31.83;21.13;;;5.90;99.90;;;;;;5063287;28;20476;-82
2024/01/30 00:31:07;;;;;;;30.92;20.52;;;5.90;99.90;;;;;;5050378;28;20041;-83
2024/01/30 00:33:32;;;;;;;31.55;20.35;;;5.90;99.90;;;;;;5058525;28;20059;-83
2024/01/30 00:35:59;;;;;;;33.33;20.80;;;5.90;99.90;;;;;;5063176;28;20513;-82
2024/01/30 00:38:24;;;;;;;30.83;21.33;;;6.00;99.90;;;;;;5064905;28;20422;-83
2024/01/30 00:40:50;;;;;;;32.20;21.10;;;5.90;99.90;;;;;;5067134;28;20044;-83
2024/01/30 00:43:16;;;;;;;32.13;20.20;;;6.00;99.90;;;;;;5055564;28;20083;-83
2024/01/30 00:45:43;;;;;;;37.17;21.60;;;5.90;99.90;;;;;;5072712;28;20045;-82
2024/01/30 00:48:09;;;;;;;33.47;20.70;;;5.90;99.90;;;;;;5071552;28;20056;-83
2024/01/30 00:50:35;;;;;;;29.95;20.52;;;6.00;99.90;;;;;;5047186;28;20053;-83
2024/01/30 00:53:01;;;;;;;29.60;20.45;;;6.00;99.90;;;;;;5054443;28;20106;-83
2024/01/30 00:55:27;;;;;;;31.20;21.27;;;6.00;99.90;;;;;;5052174;28;20040;-82
2024/01/30 00:57:52;;;;;;;29.58;20.50;;;5.90;99.90;;;;;;5062313;28;20045;-83
2024/01/30 01:00:20;;;;;;;29.60;21.23;;;6.00;99.90;;;;;;5068888;28;20124;-83
2024/01/30 01:02:46;;;;;;;31.90;20.27;;;6.00;99.90;;;;;;5071383;28;20097;-83
2024/01/30 01:05:12;;;;;;;34.20;22.05;;;6.00;99.90;;;;;;5070721;28;20119;-83
2024/01/30 01:07:38;;;;;;;39.17;21.38;;;5.90;99.90;;;;;;5072656;28;20044;-83
2024/01/30 01:10:04;;;;;;;33.85;21.33;;;5.90;99.90;;;;;;5072408;28;20379;-83
2024/01/30 01:12:29;;;;;;;31.05;20.90;;;5.90;99.90;;;;;;5072405;28;20048;-82
2024/01/30 01:14:55;;;;;;;33.75;21.85;;;5.90;99.90;;;;;;5071164;28;20049;-83
2024/01/30 01:17:21;;;;;;;27.90;19.98;;;5.90;99.90;;;;;;5066997;28;20055;-83
2024/01/30 01:19:47;;;;;;;31.02;21.02;;;5.90;99.90;;;;;;5071276;28;20098;-83
2024/01/30 01:22:12;;;;;;;30.30;21.52;;;5.90;99.90;;;;;;5054796;28;20048;-83
2024/01/30 01:24:38;;;;;;;33.00;21.23;;;5.90;99.90;;;;;;5070429;28;20123;-83
2024/01/30 01:27:05;;;;;;;33.03;21.25;;;5.90;99.90;;;;;;5071037;28;20060;-83
2024/01/30 01:29:31;;;;;;;31.25;20.80;;;5.90;99.90;;;;;;5071360;28;20060;-83
2024/01/30 01:31:58;;;;;;;34.30;20.75;;;5.90;99.90;;;;;;5071679;28;20113;-82
2024/01/30 01:34:24;;;;;;;30.60;19.48;;;5.90;99.90;;;;;;5068884;28;20040;-83
2024/01/30 01:36:50;;;;;;;33.75;21.40;;;5.90;99.90;;;;;;5070952;28;20091;-82
2024/01/30 01:39:16;;;;;;;30.60;20.05;;;6.00;99.90;;;;;;5071246;28;20053;-82
2024/01/30 01:41:42;;;;;;;30.23;20.70;;;6.00;99.90;;;;;;5070307;28;20494;-83
2024/01/30 01:44:09;;;;;;;30.85;19.77;;;6.00;99.90;;;;;;5070968;28;20086;-83
2024/01/30 01:46:35;;;;;;;28.48;18.77;;;6.00;99.90;;;;;;5075388;28;20478;-83
2024/01/30 01:49:02;;;;;;;32.45;20.02;;;6.00;99.90;;;;;;5051265;28;20040;-83
2024/01/30 01:51:30;;;;;;;31.48;20.33;;;6.00;99.90;;;;;;5053948;28;20059;-83
2024/01/30 01:53:58;;;;;;;29.42;20.45;;;6.00;99.90;;;;;;5060074;28;20044;-83
2024/01/30 01:56:25;;;;;;;29.70;20.30;;;6.00;99.90;;;;;;5068846;28;20119;-83
2024/01/30 01:58:55;;;;;;;30.20;20.45;;;6.00;99.90;;;;;;5053808;28;20060;-83
2024/01/30 02:01:21;;;;;;;29.77;19.25;;;6.00;99.90;;;;;;5050995;28;20094;-83
2024/01/30 02:03:47;;;;;;;30.98;18.92;;;6.00;99.90;;;;;;5051098;28;20048;-83
2024/01/30 02:06:17;;;;;;;27.83;19.15;;;6.00;99.90;;;;;;5051096;28;20060;-82
2024/01/30 02:08:43;;;;;;;32.55;19.77;;;6.00;99.90;;;;;;5064154;28;20045;-83
2024/01/30 02:11:10;;;;;;;31.67;20.50;;;6.00;99.90;;;;;;5071375;28;20094;-83
2024/01/30 02:13:36;;;;;;;29.58;18.35;;;6.00;99.90;;;;;;5072282;28;20055;-82
2024/01/30 02:16:02;;;;;;;32.10;19.48;;;6.00;99.90;;;;;;5066215;28;20049;-83
2024/01/30 02:18:27;;;;;;;28.65;19.27;;;6.00;99.90;;;;;;5068235;28;20105;-83
2024/01/30 02:20:54;;;;;;;27.20;18.75;;;6.00;99.90;;;;;;5052856;28;20041;-83
2024/01/30 02:23:20;;;;;;;30.85;19.98;;;6.00;99.90;;;;;;5063435;28;20063;-82
2024/01/30 02:25:46;;;;;;;30.70;19.27;;;6.00;99.90;;;;;;5067566;28;20103;-82
2024/01/30 02:28:12;;;;;;;30.02;19.85;;;6.00;99.90;;;;;;5062638;28;20048;-83
2024/01/30 02:30:45;;;;;;;29.55;20.13;;;6.10;99.90;;;;;;5071277;28;20044;-82
2024/01/30 02:33:12;;;;;;;28.70;18.20;;;6.10;99.90;;;;;;5070590;28;20528;-83
2024/01/30 02:35:38;;;;;;;31.00;18.50;;;6.10;99.90;;;;;;5052300;28;20628;-83
2024/01/30 02:38:04;;;;;;;28.23;18.60;;;6.40;99.90;;;;;;5070144;28;20063;-83
2024/01/30 02:40:30;;;;;;;26.98;17.88;;;6.10;99.90;;;;;;5070569;28;20045;-83
2024/01/30 02:42:57;;;;;;;27.75;18.48;;;6.10;99.90;;;;;;5070737;28;20115;-82
2024/01/30 02:45:23;;;;;;;27.58;18.77;;;6.20;99.90;;;;;;5070817;28;20102;-83
2024/01/30 02:47:49;;;;;;;27.98;18.75;;;6.20;99.90;;;;;;5071106;28;20053;-83
2024/01/30 02:50:15;;;;;;;25.55;17.35;;;6.30;99.90;;;;;;5070870;28;20049;-83
2024/01/30 02:52:40;;;;;;;27.85;19.48;;;6.20;99.90;;;;;;5061540;28;20141;-83
2024/01/30 02:55:07;;;;;;;25.70;17.27;;;6.20;99.90;;;;;;5054553;28;20094;-82
2024/01/30 02:57:34;;;;;;;29.10;17.95;;;6.20;99.90;;;;;;5054153;28;20041;-83
2024/01/30 03:00:00;;;;;;;28.35;18.50;;;6.20;99.90;;;;;;5059094;28;20496;-83
2024/01/30 03:02:25;;;;;;;31.13;19.48;;;6.20;99.90;;;;;;5074234;28;20131;-83
2024/01/30 03:04:51;;;;;;;26.58;16.92;;;6.20;99.90;;;;;;5074412;28;20048;-83
2024/01/30 03:07:17;;;;;;;27.75;16.75;;;6.20;99.90;;;;;;5074438;28;20063;-82
2024/01/30 03:09:43;;;;;;;27.10;17.27;;;6.30;99.90;;;;;;5073431;28;20443;-84
2024/01/30 03:12:09;;;;;;;25.10;17.65;;;6.30;99.90;;;;;;5069872;28;20044;-83
2024/01/30 03:14:35;;;;;;;26.25;17.45;;;6.30;99.90;;;;;;5070575;28;20045;-83
2024/01/30 03:17:01;;;;;;;24.10;17.10;;;6.30;99.90;;;;;;5074090;28;20101;-83
2024/01/30 03:19:26;;;;;;;25.40;17.27;;;6.30;99.90;;;;;;5074099;28;20053;-83
2024/01/30 03:21:52;;;;;;;26.88;18.17;;;6.30;99.90;;;;;;5074088;28;20044;-82
2024/01/30 03:24:18;;;;;;;27.55;16.92;;;6.30;99.90;;;;;;5073632;28;20057;-83
2024/01/30 03:26:44;;;;;;;29.98;16.92;;;6.30;99.90;;;;;;5074244;28;20056;-83
2024/01/30 03:29:09;;;;;;;27.10;17.10;;;6.30;99.90;;;;;;5073188;28;20106;-83
2024/01/30 03:31:35;;;;;;;24.77;16.15;;;6.50;99.90;;;;;;5069924;28;20054;-83
2024/01/30 03:34:01;;;;;;;31.60;16.95;;;6.30;99.90;;;;;;5074022;28;20079;-83
2024/01/30 03:36:27;;;;;;;23.42;16.65;;;6.30;99.90;;;;;;5074005;28;20047;-83
2024/01/30 03:38:53;;;;;;;22.17;15.55;;;6.30;99.90;;;;;;5064339;28;20048;-83
2024/01/30 03:41:19;;;;;;;25.42;17.00;;;6.30;99.90;;;;;;5068143;28;20045;-84
2024/01/30 03:43:44;;;;;;;23.83;16.48;;;6.30;99.90;;;;;;5057403;28;20083;-82
2024/01/30 03:46:12;;;;;;;25.75;17.00;;;6.80;99.90;;;;;;5074235;28;20044;-83
2024/01/30 03:48:39;;;;;;;27.83;16.98;;;6.30;99.90;;;;;;5072191;28;20036;-83
2024/01/30 03:51:05;;;;;;;27.08;17.85;;;6.30;99.90;;;;;;5073739;28;20457;-83
2024/01/30 03:53:30;;;;;;;22.42;15.52;;;6.40;99.90;;;;;;5073758;28;20545;-82
2024/01/30 03:55:56;;;;;;;23.10;16.35;;;6.30;99.90;;;;;;5073945;28;20131;-82
2024/01/30 03:58:22;;;;;;;26.63;16.42;;;6.90;99.90;;;;;;5073070;28;20037;-83
2024/01/30 04:00:48;;;;;;;27.80;17.50;;;6.30;99.90;;;;;;5056675;28;20053;-83
2024/01/30 04:03:16;;;;;;;25.05;16.17;;;6.30;99.90;;;;;;5072889;28;20048;-83
2024/01/30 04:05:42;;;;;;;24.67;16.50;;;6.30;99.90;;;;;;5071877;28;20413;-82
2024/01/30 04:08:08;;;;;;;24.20;16.65;;;6.30;99.90;;;;;;5071771;28;20131;-83
2024/01/30 04:10:34;;;;;;;25.90;16.83;;;6.40;99.90;;;;;;5072447;28;20048;-83
2024/01/30 04:13:00;;;;;;;27.17;16.60;;;6.30;99.90;;;;;;5072904;28;20052;-83
2024/01/30 04:15:26;;;;;;;24.52;17.73;;;6.40;99.90;;;;;;5072721;28;20098;-82
2024/01/30 04:17:51;;;;;;;24.25;16.33;;;6.30;99.90;;;;;;5072970;28;20044;-83
2024/01/30 04:20:17;;;;;;;24.35;15.25;;;6.40;99.90;;;;;;5043950;28;20041;-82
2024/01/30 04:22:44;;;;;;;26.90;16.63;;;6.40;99.90;;;;;;5036360;28;20044;-83
2024/01/30 04:25:10;;;;;;;25.13;14.93;;;6.50;99.90;;;;;;5047092;28;20053;-83
2024/01/30 04:27:36;;;;;;;31.35;16.35;;;6.50;99.90;;;;;;5059857;28;20053;-83
2024/01/30 04:30:02;;;;;;;25.23;15.13;;;6.50;99.90;;;;;;5072301;28;20044;-83
2024/01/30 04:32:28;;;;;;;30.85;16.50;;;6.60;99.90;;;;;;5056565;28;20048;-83
2024/01/30 04:34:53;;;;;;;22.42;14.02;;;6.70;99.90;;;;;;5072873;28;20375;-83
2024/01/30 04:37:19;;;;;;;21.42;13.70;;;6.60;99.90;;;;;;5072593;28;20052;-83
2024/01/30 04:39:45;;;;;;;23.25;15.27;;;6.60;99.90;;;;;;5072727;28;20044;-84
2024/01/30 04:42:10;;;;;;;24.30;15.63;;;7.10;99.90;;;;;;5072454;28;20364;-82
2024/01/30 04:44:36;;;;;;;21.35;14.88;;;6.60;99.90;;;;;;5070611;28;20086;-83
2024/01/30 04:47:02;;;;;;;23.40;14.73;;;6.60;99.90;;;;;;5072579;28;20375;-83
2024/01/30 04:49:29;;;;;;;23.13;14.40;;;6.70;99.90;;;;;;5072729;28;20041;-83
2024/01/30 04:51:55;;;;;;;22.13;14.60;;;6.70;99.90;;;;;;5072775;28;20048;-84
2024/01/30 04:54:21;;;;;;;23.55;14.23;;;6.70;99.90;;;;;;5072247;28;20144;-83
2024/01/30 04:56:47;;;;;;;21.90;14.45;;;6.70;99.90;;;;;;5072548;28;20076;-83
2024/01/30 04:59:12;;;;;;;24.27;13.82;;;6.70;99.90;;;;;;5072521;28;20040;-82
2024/01/30 05:01:38;;;;;;;23.70;14.10;;;6.80;99.90;;;;;;5070587;28;20098;-83
2024/01/30 05:04:06;;;;;;;20.80;14.13;;;6.70;99.90;;;;;;5055691;28;20045;-83
2024/01/30 05:06:32;;;;;;;19.90;13.70;;;6.70;99.90;;;;;;5055878;28;20041;-82
2024/01/30 05:08:58;;;;;;;20.63;13.25;;;6.80;99.90;;;;;;5072060;28;20427;-83
2024/01/30 05:11:23;;;;;;;19.60;13.07;;;7.30;99.90;;;;;;5072104;28;20482;-83
2024/01/30 05:13:49;;;;;;;22.65;13.50;;;6.80;99.90;;;;;;5055618;28;20040;-83
2024/01/30 05:16:15;;;;;;;22.67;13.93;;;6.90;99.90;;;;;;5071187;28;20044;-83
2024/01/30 05:18:40;;;;;;;19.80;13.55;;;6.90;99.90;;;;;;5070307;28;20044;-83
2024/01/30 05:21:06;;;;;;;22.52;14.23;;;7.00;99.90;;;;;;5071976;28;20064;-83
2024/01/30 05:23:32;;;;;;;24.05;15.48;;;6.90;99.90;;;;;;5054933;28;20491;-82
2024/01/30 05:26:00;;;;;;;21.98;13.77;;;7.00;99.90;;;;;;5071927;28;20379;-83
2024/01/30 05:28:26;;;;;;;23.60;14.25;;;6.90;99.90;;;;;;5071785;28;20094;-83
2024/01/30 05:30:52;;;;;;;20.30;14.13;;;6.90;99.90;;;;;;5071410;28;20409;-83
2024/01/30 05:33:17;;;;;;;24.67;14.57;;;6.90;99.90;;;;;;5072362;28;20048;-83
2024/01/30 05:35:43;;;;;;;21.20;14.45;;;6.90;99.90;;;;;;5055151;28;20040;-83
2024/01/30 05:38:09;;;;;;;21.83;14.23;;;6.90;99.90;;;;;;5070067;28;20486;-83
2024/01/30 05:40:34;;;;;;;24.52;14.95;;;6.90;99.90;;;;;;5071281;28;20048;-83
2024/01/30 05:43:02;;;;;;;20.52;14.00;;;6.90;99.90;;;;;;5071946;28;20494;-83
2024/01/30 05:45:28;;;;;;;26.42;15.32;;;6.90;99.90;;;;;;5071822;28;20115;-83
2024/01/30 05:47:54;;;;;;;21.48;14.68;;;7.00;99.90;;;;;;5071588;28;20048;-83
2024/01/30 05:50:23;;;;;;;21.27;14.40;;;7.30;99.90;;;;;;5071377;28;20462;-82
2024/01/30 05:52:48;;;;;;;20.67;13.63;;;6.90;99.90;;;;;;5072179;28;20080;-82
2024/01/30 05:55:14;;;;;;;26.70;14.50;;;7.00;99.90;;;;;;5069690;28;20509;-83
2024/01/30 05:57:40;;;;;;;22.77;15.20;;;7.00;99.90;;;;;;5065908;28;20040;-83
2024/01/30 06:00:07;;;;;;;19.35;12.63;;;6.90;99.90;;;;;;5070901;28;20398;-85
2024/01/30 06:02:36;;;;;;;22.48;14.40;;;6.90;99.90;;;;;;5049589;28;20091;-82
2024/01/30 06:05:02;;;;;;;23.20;13.80;;;7.20;99.90;;;;;;5067752;28;20481;-82
2024/01/30 06:07:28;;;;;;;22.33;13.55;;;6.90;99.90;;;;;;5059856;28;20055;-81
2024/01/30 06:09:53;;;;;;;17.85;13.35;;;7.00;99.90;;;;;;5071216;28;20040;-82
2024/01/30 06:12:19;;;;;;;23.45;14.48;;;7.00;99.90;;;;;;5060942;28;20367;-82
2024/01/30 06:14:45;;;;;;;19.63;12.88;;;7.00;99.90;;;;;;5080248;28;20044;-82
2024/01/30 06:17:11;;;;;;;20.67;13.32;;;7.00;99.90;;;;;;5057030;28;20041;-83
2024/01/30 06:19:38;;;;;;;22.10;13.23;;;7.00;99.90;;;;;;5071134;28;20052;-82
2024/01/30 06:22:04;;;;;;;20.42;13.82;;;7.00;99.90;;;;;;5071258;28;20098;-83
2024/01/30 06:24:30;;;;;;;19.40;13.35;;;7.00;99.90;;;;;;5071695;28;20052;-83
2024/01/30 06:26:56;;;;;;;19.20;13.20;;;7.00;99.90;;;;;;5063361;28;20045;-83
2024/01/30 06:29:22;;;;;;;21.42;13.57;;;7.10;99.90;;;;;;5073695;28;20053;-83
2024/01/30 06:31:47;;;;;;;20.95;13.23;;;7.00;99.90;;;;;;5074332;28;20040;-82
2024/01/30 06:34:13;;;;;;;21.13;13.52;;;7.00;99.90;;;;;;5072336;28;20076;-82
2024/01/30 06:36:38;;;;;;;19.90;13.32;;;7.10;99.90;;;;;;5058243;28;20619;-82
2024/01/30 06:39:05;;;;;;;18.70;13.52;;;7.10;99.90;;;;;;5075811;28;20090;-82
2024/01/30 06:41:31;;;;;;;24.85;13.90;;;7.10;99.90;;;;;;5075184;28;20049;-81
2024/01/30 06:43:56;;;;;;;21.67;13.82;;;7.00;99.90;;;;;;5074476;28;20038;-82
2024/01/30 06:46:22;;;;;;;21.30;13.88;;;7.10;99.90;;;;;;5068969;28;20045;-83
2024/01/30 06:48:48;;;;;;;21.48;12.98;;;7.00;99.90;;;;;;5070139;28;20388;-83
2024/01/30 06:51:14;;;;;;;22.92;14.35;;;7.10;99.90;;;;;;5065877;28;20049;-82
2024/01/30 06:53:40;;;;;;;21.17;14.18;;;7.10;99.90;;;;;;5072460;28;20450;-83
2024/01/30 06:56:06;;;;;;;19.80;12.95;;;7.10;99.90;;;;;;5058848;28;20081;-83
2024/01/30 06:58:32;;;;;;;22.85;13.90;;;7.10;99.90;;;;;;5074691;28;20037;-83
2024/01/30 07:00:58;;;;;;;19.10;13.10;;;7.10;99.90;;;;;;5071929;28;20441;-85
2024/01/30 07:03:24;;;;;;;17.23;12.18;;;7.10;99.90;;;;;;5067835;28;20182;-82
2024/01/30 07:05:50;;;;;;;27.00;17.63;;;7.50;99.90;;;;;;5060886;28;20052;-81
2024/01/30 07:08:19;;;;;;;25.25;16.85;;;7.40;99.90;;;;;;5058655;28;20079;-83
2024/01/30 07:10:44;;;;;;;34.03;20.15;;;7.20;99.90;;;;;;5053950;28;20136;-83
2024/01/30 07:13:11;;;;;;;27.63;15.85;;;7.10;99.90;;;;;;5053982;28;20110;-82
2024/01/30 07:15:37;;;;;;;24.52;14.48;;;7.20;99.90;;;;;;5061386;28;20052;-82
2024/01/30 07:18:04;;;;;;;20.25;13.77;;;7.20;99.90;;;;;;5068453;28;20141;-81
2024/01/30 07:20:31;;;;;;;23.80;14.35;;;7.20;99.90;;;;;;5070409;28;20470;-81
2024/01/30 07:22:58;;;;;;;20.10;14.23;;;7.20;99.90;;;;;;5071749;28;20134;-82
2024/01/30 07:25:26;;;;;;;20.95;12.77;;;7.20;99.90;;;;;;5069662;28;20407;-82
2024/01/30 07:27:53;;;;;;;19.40;13.13;;;7.20;99.90;;;;;;5054854;28;20076;-83
2024/01/30 07:30:19;;;;;;;19.95;13.60;;;7.30;99.90;;;;;;5057131;28;20559;-82
2024/01/30 07:32:46;;;;;;;23.30;15.00;;;7.30;99.90;;;;;;5065616;28;20037;-85
2024/01/30 07:35:12;;;;;;;19.98;13.63;;;7.30;99.90;;;;;;5058490;28;20118;-82
2024/01/30 07:37:37;;;;;;;22.38;13.35;;;7.30;99.90;;;;;;5074710;28;20504;-81
2024/01/30 07:40:04;;;;;;;22.15;13.80;;;7.30;99.90;;;;;;5072002;28;20052;-81
2024/01/30 07:42:29;;;;;;;19.30;13.43;;;7.20;99.90;;;;;;5074401;28;20170;-82
2024/01/30 07:44:55;;;;;;;22.80;13.80;;;7.30;99.90;;;;;;5079657;28;20154;-82
2024/01/30 07:47:21;;;;;;;19.35;13.57;;;7.30;99.90;;;;;;5061615;28;20530;-80
2024/01/30 07:49:47;;;;;;;19.48;13.15;;;7.20;99.90;;;;;;5057728;28;20049;-80
2024/01/30 07:52:13;;;;;;;29.50;14.43;;;7.20;99.90;;;;;;5062835;28;20044;-79
2024/01/30 07:54:39;;;;;;;21.30;13.38;;;7.20;99.90;;;;;;5071193;28;20074;-81
2024/01/30 07:57:05;;;;;;;22.25;13.32;;;7.30;99.90;;;;;;5071529;28;20040;-81
2024/01/30 07:59:30;;;;;;;22.20;13.73;;;7.20;99.90;;;;;;5074256;28;20433;-80
2024/01/30 08:01:56;;;;;;;18.00;12.82;;;7.20;99.90;;;;;;5073708;28;20056;-80
2024/01/30 08:04:22;;;;;;;21.42;13.52;;;7.50;99.90;;;;;;5062985;28;20062;-82
2024/01/30 08:06:47;;;;;;;20.55;13.23;;;7.20;99.90;;;;;;5075069;28;20049;-81
2024/01/30 08:09:13;;;;;;;22.13;13.45;;;7.30;99.90;;;;;;5074138;28;20040;-79
2024/01/30 08:11:39;;;;;;;20.40;12.70;;;7.30;99.90;;;;;;5074214;28;20040;-80
2024/01/30 08:14:05;;;;;;;21.60;13.48;;;7.30;99.90;;;;;;5073942;28;20513;-80
2024/01/30 08:16:30;;;;;;;20.13;12.38;;;7.40;99.90;;;;;;5074053;28;20045;-81
2024/01/30 08:18:57;;;;;;;23.00;14.07;;;7.30;99.90;;;;;;5057341;28;20044;-80
2024/01/30 08:21:23;;;;;;;23.17;13.30;;;7.30;99.90;;;;;;5072936;28;20045;-81
2024/01/30 08:23:48;;;;;;;20.70;13.82;;;7.30;99.90;;;;;;5073112;28;20151;-81
2024/01/30 08:26:14;;;;;;;19.85;12.32;;;7.40;99.90;;;;;;5073373;28;20048;-81
2024/01/30 08:28:40;;;;;;;18.20;12.23;;;7.40;99.90;;;;;;5073658;28;20075;-81
2024/01/30 08:31:05;;;;;;;20.75;13.43;;;7.40;99.90;;;;;;5073133;28;20040;-81
2024/01/30 08:33:31;;;;;;;19.98;13.18;;;7.50;99.90;;;;;;5073546;28;20044;-81
2024/01/30 08:35:57;;;;;;;18.60;12.27;;;7.50;99.90;;;;;;5073296;28;20048;-81
2024/01/30 08:38:23;;;;;;;19.95;12.55;;;7.60;99.90;;;;;;5072633;28;20048;-81
2024/01/30 08:40:49;;;;;;;18.45;11.60;;;7.60;99.90;;;;;;5073243;28;20494;-80
2024/01/30 08:43:15;;;;;;;21.35;12.95;;;7.60;99.90;;;;;;5072944;28;20051;-82
2024/01/30 08:45:41;;;;;;;22.90;14.05;;;7.60;99.90;;;;;;5062780;28;20075;-80
2024/01/30 08:48:07;;;;;;;19.10;12.50;;;7.60;99.90;;;;;;5053497;28;20060;-81
2024/01/30 08:50:34;;;;;;;23.70;13.75;;;7.60;99.90;;;;;;5053182;28;20049;-80
2024/01/30 08:53:00;;;;;;;19.02;12.57;;;7.60;99.90;;;;;;5053390;28;20060;-81
2024/01/30 08:55:25;;;;;;;22.77;12.30;;;7.70;99.90;;;;;;5056677;28;20045;-81
2024/01/30 08:57:52;;;;;;;21.60;11.73;;;7.70;99.90;;;;;;5072661;28;20662;-81
2024/01/30 09:00:18;;;;;;;19.55;12.48;;;7.70;99.90;;;;;;5072400;28;20427;-80
2024/01/30 09:02:43;;;;;;;20.73;11.90;;;7.80;99.90;;;;;;5072501;28;20044;-80
2024/01/30 09:05:09;;;;;;;19.88;12.88;;;7.80;99.90;;;;;;5071305;28;20097;-82
2024/01/30 09:07:35;;;;;;;17.58;11.55;;;7.90;99.90;;;;;;5072722;28;20051;-81
2024/01/30 09:10:00;;;;;;;18.02;11.70;;;7.90;99.90;;;;;;5064952;28;20068;-82
2024/01/30 09:12:26;;;;;;;18.83;10.98;;;8.00;99.90;;;;;;5063250;28;20506;-82
2024/01/30 09:14:51;;;;;;;18.80;12.27;;;8.00;99.90;;;;;;5064713;28;20385;-80
2024/01/30 09:17:17;;;;;;;16.90;10.68;;;8.00;99.90;;;;;;5085719;28;20040;-82
2024/01/30 09:19:43;;;;;;;19.55;12.00;;;8.10;99.90;;;;;;5071439;28;20102;-81
2024/01/30 09:22:08;;;;;;;18.58;11.48;;;8.20;99.90;;;;;;5072132;28;20044;-83
2024/01/30 09:24:34;;;;;;;18.40;11.82;;;8.10;99.90;;;;;;5067833;28;20074;-81
2024/01/30 09:27:00;;;;;;;19.20;11.50;;;8.20;99.90;;;;;;5063943;28;20119;-83
2024/01/30 09:29:26;;;;;;;18.30;11.00;;;8.20;99.90;;;;;;5066995;28;20215;-82
2024/01/30 09:31:52;;;;;;;16.60;11.20;;;8.20;99.90;;;;;;5070644;28;20071;-81
2024/01/30 09:34:17;;;;;;;21.48;11.25;;;8.40;99.90;;;;;;5067017;28;20045;-81
2024/01/30 09:36:43;;;;;;;22.48;11.50;;;8.30;99.90;;;;;;5066228;28;20040;-83
2024/01/30 09:39:09;;;;;;;19.67;12.30;;;8.40;99.90;;;;;;5058579;28;20041;-82
2024/01/30 09:41:48;;;;;;;21.77;12.68;;;8.40;99.90;;;;;;5069600;28;20060;-82
2024/01/30 09:44:20;;;;;;;17.90;10.40;;;8.50;99.90;;;;;;5072063;28;20435;-82
2024/01/30 09:46:50;;;;;;;16.88;11.50;;;8.50;99.90;;;;;;5071046;28;20044;-82
2024/01/30 09:49:18;;;;;;;18.50;10.07;;;8.80;99.90;;;;;;5071177;28;20079;-82
2024/01/30 09:51:45;;;;;;;18.85;11.00;;;8.70;99.90;;;;;;5065365;28;20090;-82
2024/01/30 09:54:15;;;;;;;18.75;11.18;;;8.70;99.90;;;;;;5060173;28;20099;-83
2024/01/30 09:56:40;;;;;;;19.38;10.93;;;8.80;99.90;;;;;;5061645;28;20049;-82
2024/01/30 09:59:06;;;;;;;18.13;11.98;;;8.80;99.90;;;;;;5063721;28;20363;-82
2024/01/30 10:01:33;;;;;;;17.77;10.68;;;8.90;99.90;;;;;;5071492;28;20139;-82
2024/01/30 10:04:00;;;;;;;18.48;10.75;;;9.00;99.90;;;;;;5069458;28;20036;-82
2024/01/30 10:06:27;;;;;;;19.80;10.07;;;9.00;99.90;;;;;;5075754;28;20044;-81
2024/01/30 10:08:53;;;;;;;17.42;11.52;;;9.10;99.90;;;;;;5069019;28;20064;-81
2024/01/30 10:11:18;;;;;;;18.60;11.00;;;9.10;99.90;;;;;;5061655;28;20044;-81
2024/01/30 10:13:44;;;;;;;14.35;10.23;;;9.10;99.90;;;;;;5043928;28;20052;-81
2024/01/30 10:16:10;;;;;;;17.50;9.82;;;9.10;99.90;;;;;;5076550;28;20055;-81
2024/01/30 10:18:35;;;;;;;20.20;11.40;;;9.10;99.90;;;;;;5076292;28;20051;-82
2024/01/30 10:21:01;;;;;;;17.02;10.27;;;9.10;99.90;;;;;;5076324;28;20036;-81
2024/01/30 10:23:26;;;;;;;19.88;10.98;;;9.20;99.90;;;;;;5077026;28;20052;-82
2024/01/30 10:25:52;;;;;;;18.70;10.88;;;9.10;99.90;;;;;;5066443;28;20375;-82
2024/01/30 10:28:18;;;;;;;16.98;10.13;;;9.20;99.90;;;;;;5068965;28;20448;-81
2024/01/30 10:30:46;;;;;;;21.20;10.88;;;9.20;99.90;;;;;;5064005;28;20044;-82
2024/01/30 10:33:12;;;;;;;18.02;10.63;;;9.20;99.90;;;;;;5072991;28;20472;-82
2024/01/30 10:35:38;;;;;;;17.92;10.68;;;9.30;99.90;;;;;;5054557;28;20128;-83
2024/01/30 10:38:09;;;;;;;20.02;10.98;;;9.40;99.90;;;;;;5071593;28;20052;-83
2024/01/30 10:40:37;;;;;;;20.52;11.48;;;9.40;99.90;;;;;;5079566;28;20119;-83
2024/01/30 10:43:04;;;;;;;19.85;12.25;;;9.40;99.90;;;;;;5069203;28;20568;-86
2024/01/30 10:45:31;;;;;;;18.02;10.63;;;9.40;99.90;;;;;;5058672;28;20056;-84
2024/01/30 10:47:59;;;;;;;24.10;11.70;;;9.50;99.90;;;;;;5067920;28;20068;-84
2024/01/30 10:50:26;;;;;;;21.42;12.15;;;9.50;99.90;;;;;;5057436;28;20052;-83
2024/01/30 10:52:53;;;;;;;19.80;12.25;;;9.50;99.90;;;;;;5068602;28;20082;-82
2024/01/30 10:55:22;;;;;;;21.63;12.13;;;9.60;99.90;;;;;;5067539;28;20053;-83
2024/01/30 10:57:47;;;;;;;21.83;11.82;;;9.60;99.90;;;;;;5071678;28;20127;-83
2024/01/30 11:00:15;;;;;;;20.00;11.93;;;9.70;99.90;;;;;;5084662;28;20131;-84
2024/01/30 11:02:45;;;;;;;21.38;11.30;;;9.70;99.90;;;;;;5044508;28;20478;-83
2024/01/30 11:05:15;;;;;;;18.23;12.02;;;9.70;99.90;;;;;;5079032;28;20052;-81
2024/01/30 11:07:41;;;;;;;23.48;11.70;;;9.70;99.90;;;;;;5076544;28;20048;-82
2024/01/30 11:10:09;;;;;;;18.83;12.30;;;9.70;99.90;;;;;;5067467;28;20093;-84
2024/01/30 11:12:43;;;;;;;19.45;10.88;;;9.70;99.90;;;;;;5057214;28;20044;-84
2024/01/30 11:15:16;;;;;;;20.08;12.15;;;9.70;99.90;;;;;;5074362;28;20055;-83
2024/01/30 11:17:49;;;;;;;21.40;11.32;;;9.80;99.90;;;;;;5068025;28;20094;-82
2024/01/30 11:20:16;;;;;;;17.00;11.68;;;9.70;99.90;;;;;;5064512;28;20390;-83
2024/01/30 11:22:45;;;;;;;18.38;11.75;;;9.80;99.90;;;;;;5064726;28;20056;-83
2024/01/30 11:25:19;;;;;;;22.15;11.75;;;9.80;99.90;;;;;;5071951;28;20063;-81
2024/01/30 11:27:51;;;;;;;17.85;11.60;;;9.80;99.90;;;;;;5064425;28;20048;-83
2024/01/30 11:30:35;;;;;;;19.60;11.13;;;9.80;99.90;;;;;;5068411;28;20052;-84
2024/01/30 11:33:14;;;;;;;19.85;12.50;;;9.80;99.90;;;;;;5070648;28;20458;-84
2024/01/30 11:35:42;;;;;;;19.63;11.18;;;9.80;99.90;;;;;;5082671;28;20041;-80
2024/01/30 11:38:12;;;;;;;20.60;11.43;;;9.80;99.90;;;;;;5065972;28;20045;-83
2024/01/30 11:40:39;;;;;;;18.60;12.13;;;9.90;99.90;;;;;;5073571;28;20716;-82
2024/01/30 11:43:09;;;;;;;21.35;12.32;;;9.80;99.90;;;;;;5082577;28;20079;-82
2024/01/30 11:45:36;;;;;;;19.55;12.07;;;9.80;99.90;;;;;;5073964;28;20055;-83
2024/01/30 11:48:05;;;;;;;18.35;11.32;;;9.80;99.90;;;;;;5067920;28;20119;-80
2024/01/30 11:50:32;;;;;;;21.58;13.50;;;9.80;99.90;;;;;;5066209;28;20040;-83
2024/01/30 11:53:00;;;;;;;20.05;12.18;;;9.80;99.90;;;;;;5066511;28;20045;-84
2024/01/30 11:55:26;;;;;;;18.30;13.40;;;9.80;99.90;;;;;;5070534;28;20409;-83
2024/01/30 11:57:55;;;;;;;23.80;12.98;;;9.80;99.90;;;;;;5039307;28;20041;-83
2024/01/30 12:00:20;;;;;;;25.83;12.40;;;9.80;99.90;;;;;;5059719;28;20041;-82
2024/01/30 12:02:52;;;;;;;19.13;10.43;;;9.80;99.90;;;;;;5064505;28;20056;-82
2024/01/30 12:05:20;;;;;;;20.20;8.95;;;9.60;99.90;;;;;;5066447;28;20433;-83
2024/01/30 12:07:46;;;;;;;20.38;8.43;;;9.50;99.90;;;;;;5052307;28;20049;-83
2024/01/30 12:10:13;;;;;;;20.92;8.57;;;9.50;99.90;;;;;;5073213;28;20072;-83
2024/01/30 12:12:41;;;;;;;17.85;7.72;;;9.50;99.90;;;;;;5075368;28;20048;-82
2024/01/30 12:15:07;;;;;;;19.60;6.65;;;9.40;99.90;;;;;;5080583;28;20055;-85
2024/01/30 12:17:37;;;;;;;17.25;7.00;;;9.30;99.90;;;;;;5081918;28;20052;-87
2024/01/30 12:20:13;;;;;;;19.85;6.97;;;9.30;99.90;;;;;;5068202;28;20088;-83
2024/01/30 12:22:44;;;;;;;18.35;6.32;;;9.30;99.90;;;;;;5073002;28;20048;-83
2024/01/30 12:25:11;;;;;;;18.83;5.80;;;9.20;99.90;;;;;;5067612;28;20048;-84
2024/01/30 12:27:42;;;;;;;17.10;6.55;;;9.20;99.90;;;;;;5071101;28;20048;-84
2024/01/30 12:30:14;;;;;;;14.90;5.22;;;9.20;99.90;;;;;;5082127;28;20113;-84
2024/01/30 12:32:50;;;;;;;15.77;5.38;;;9.20;99.90;;;;;;5079562;28;20130;-84
2024/01/30 12:35:17;;;;;;;15.57;5.18;;;9.30;99.90;;;;;;5075553;28;20128;-83